Time;durP1;ratioP1;P1;durP2;ratioP2;P2;SDS_P1;SDS_P2;PMS_P1;PMS_P2;Temp;Humidity;BMP_temperature;BMP_pressure;BME280_temperature;BME280_humidity;BME280_pressure;Samples;Min_cycle;Max_cycle;Signal;HPM_P1;HPM_P2
2021/03/29 00:02:09;;;;;;;17.85;14.18;;;11.70;99.90;;;;;;4991973;28;20088;-74
2021/03/29 00:04:35;;;;;;;16.20;14.05;;;11.70;99.90;;;;;;4989128;28;20097;-74
2021/03/29 00:07:02;;;;;;;16.45;14.70;;;11.70;99.90;;;;;;4989568;28;20031;-75
2021/03/29 00:09:30;;;;;;;15.40;13.88;;;11.60;99.90;;;;;;4991834;28;20110;-75
2021/03/29 00:12:00;;;;;;;17.73;15.35;;;11.70;99.90;;;;;;4990904;28;20117;-75
2021/03/29 00:14:27;;;;;;;15.43;13.98;;;11.60;99.90;;;;;;4993199;28;20102;-74
2021/03/29 00:16:54;;;;;;;14.52;12.75;;;11.60;99.90;;;;;;4991925;28;20038;-75
2021/03/29 00:19:20;;;;;;;16.02;12.85;;;11.60;99.90;;;;;;4992097;28;20026;-75
2021/03/29 00:21:46;;;;;;;16.50;14.32;;;11.70;99.90;;;;;;4991208;28;20048;-75
2021/03/29 00:24:12;;;;;;;13.65;12.23;;;11.70;99.90;;;;;;4991615;28;20408;-75
2021/03/29 00:26:40;;;;;;;16.30;12.52;;;11.70;99.90;;;;;;4991902;28;20125;-75
2021/03/29 00:29:06;;;;;;;15.93;12.73;;;11.80;99.90;;;;;;4991670;28;20027;-75
2021/03/29 00:31:32;;;;;;;14.00;12.32;;;11.80;99.90;;;;;;4992858;28;20029;-75
2021/03/29 00:34:00;;;;;;;16.92;13.45;;;11.70;99.90;;;;;;4992397;28;20034;-75
2021/03/29 00:36:27;;;;;;;12.73;11.10;;;11.70;99.90;;;;;;4974362;28;20050;-75
2021/03/29 00:38:55;;;;;;;16.52;13.05;;;11.60;99.90;;;;;;4992005;28;20034;-75
2021/03/29 00:41:22;;;;;;;15.15;13.70;;;11.60;99.90;;;;;;4973702;28;20510;-75
2021/03/29 00:43:49;;;;;;;16.08;13.98;;;11.60;99.90;;;;;;4991819;28;20026;-75
2021/03/29 00:46:17;;;;;;;14.07;12.65;;;11.60;99.90;;;;;;4992758;28;20030;-75
2021/03/29 00:48:44;;;;;;;14.18;12.75;;;11.70;99.90;;;;;;4991000;28;20030;-75
2021/03/29 00:51:28;;;;;;;13.63;11.90;;;11.70;99.90;;;;;;4991253;28;20035;-75
2021/03/29 00:54:00;;;;;;;20.45;12.45;;;11.60;99.90;;;;;;4990079;28;20026;-75
2021/03/29 00:56:28;;;;;;;18.50;13.40;;;11.70;99.90;;;;;;4978142;28;20026;-72
2021/03/29 00:58:55;;;;;;;14.95;13.45;;;11.60;99.90;;;;;;4990609;28;20549;-74
2021/03/29 01:01:27;;;;;;;13.13;11.95;;;11.70;99.90;;;;;;4989060;28;20115;-74
2021/03/29 01:03:56;;;;;;;14.00;12.75;;;11.70;99.90;;;;;;4991704;28;20038;-74
2021/03/29 01:06:25;;;;;;;13.93;12.73;;;11.80;99.90;;;;;;4990745;28;20035;-74
2021/03/29 01:08:57;;;;;;;13.82;12.55;;;11.70;99.90;;;;;;4987629;28;20030;-74
2021/03/29 01:11:25;;;;;;;;;;;11.60;99.90;;;;;;4990519;28;20030;-74
2021/03/29 01:13:58;;;;;;;15.25;13.85;;;11.60;99.90;;;;;;4991126;28;19956;-74
2021/03/29 01:16:27;;;;;;;17.08;15.40;;;11.50;99.90;;;;;;4973714;28;20023;-74
2021/03/29 01:18:56;;;;;;;15.05;13.55;;;11.40;99.90;;;;;;4978936;28;20812;-74
2021/03/29 01:21:36;;;;;;;17.00;15.02;;;11.40;99.90;;;;;;4987698;28;20041;-74
2021/03/29 01:24:10;;;;;;;16.80;14.30;;;11.30;99.90;;;;;;4989476;28;20070;-74
2021/03/29 01:26:42;;;;;;;16.33;13.50;;;11.40;99.90;;;;;;4990997;28;20120;-74
2021/03/29 01:29:09;;;;;;;16.67;15.13;;;11.40;99.90;;;;;;4990954;28;20496;-74
2021/03/29 01:31:36;;;;;;;17.30;15.63;;;11.40;99.90;;;;;;4990519;28;20034;-74
2021/03/29 01:34:03;;;;;;;17.52;15.38;;;11.40;99.90;;;;;;4990804;28;20030;-75
2021/03/29 01:36:30;;;;;;;15.52;13.98;;;11.30;99.90;;;;;;4991178;28;20026;-75
2021/03/29 01:38:58;;;;;;;14.32;12.82;;;11.40;99.90;;;;;;4990784;28;20030;-75
2021/03/29 01:41:24;;;;;;;14.85;13.30;;;11.40;99.90;;;;;;4970327;28;20077;-75
2021/03/29 01:43:51;;;;;;;15.30;14.02;;;11.40;99.90;;;;;;4990153;28;20038;-75
2021/03/29 01:46:19;;;;;;;13.77;12.43;;;11.30;99.90;;;;;;4973520;28;20026;-75
2021/03/29 01:48:45;;;;;;;13.95;12.65;;;11.30;99.90;;;;;;4989133;28;20034;-75
2021/03/29 01:51:13;;;;;;;15.43;13.73;;;11.40;99.90;;;;;;4972532;28;20057;-75
2021/03/29 01:53:40;;;;;;;21.15;16.23;;;11.40;99.90;;;;;;4989144;28;20500;-75
2021/03/29 01:56:06;;;;;;;24.05;14.73;;;11.40;99.90;;;;;;4990797;28;20112;-75
2021/03/29 01:58:32;;;;;;;15.40;13.95;;;11.50;99.90;;;;;;4990769;28;20531;-75
2021/03/29 02:01:01;;;;;;;18.15;14.90;;;11.40;99.90;;;;;;4987012;28;20035;-75
2021/03/29 02:03:28;;;;;;;16.17;14.40;;;11.30;99.90;;;;;;4986358;28;20034;-73
2021/03/29 02:05:55;;;;;;;18.73;16.77;;;11.40;99.90;;;;;;4990566;28;20088;-74
2021/03/29 02:08:24;;;;;;;16.85;15.15;;;11.40;99.90;;;;;;4988014;28;20480;-74
2021/03/29 02:10:50;;;;;;;16.90;15.27;;;11.30;99.90;;;;;;4991098;28;20061;-74
2021/03/29 02:13:19;;;;;;;17.63;15.85;;;11.30;99.90;;;;;;4988441;28;20030;-74
2021/03/29 02:15:47;;;;;;;17.00;14.57;;;11.30;99.90;;;;;;4991249;28;20424;-74
2021/03/29 02:18:28;;;;;;;19.15;15.63;;;11.30;99.90;;;;;;4990557;28;20050;-74
2021/03/29 02:21:00;;;;;;;18.75;15.55;;;11.20;99.90;;;;;;4989129;28;20034;-74
2021/03/29 02:23:28;;;;;;;17.85;15.48;;;11.20;99.90;;;;;;4988202;28;20056;-74
2021/03/29 02:25:55;;;;;;;15.45;14.02;;;11.30;99.90;;;;;;4989415;28;20026;-74
2021/03/29 02:28:21;;;;;;;16.48;14.77;;;11.30;99.90;;;;;;4990305;28;20027;-75
2021/03/29 02:30:47;;;;;;;16.02;13.60;;;11.30;99.90;;;;;;4990026;28;20477;-75
2021/03/29 02:33:15;;;;;;;16.83;14.77;;;11.30;99.90;;;;;;4989192;28;20385;-74
2021/03/29 02:35:42;;;;;;;18.83;15.18;;;11.10;99.90;;;;;;4990220;28;20080;-74
2021/03/29 02:38:16;;;;;;;16.17;14.57;;;11.10;99.90;;;;;;4990608;28;20078;-75
2021/03/29 02:40:42;;;;;;;17.58;15.68;;;11.00;99.90;;;;;;4989666;28;20034;-74
2021/03/29 02:43:10;;;;;;;15.82;13.82;;;11.00;99.90;;;;;;4989154;28;20594;-74
2021/03/29 02:45:47;;;;;;;16.80;15.20;;;11.00;99.90;;;;;;4990311;28;20014;-74
2021/03/29 02:48:15;;;;;;;18.45;16.13;;;11.00;99.90;;;;;;4989328;28;20030;-74
2021/03/29 02:50:44;;;;;;;16.08;14.43;;;11.00;99.90;;;;;;4991323;28;20100;-75
2021/03/29 02:53:18;;;;;;;17.13;15.48;;;11.00;99.90;;;;;;4986963;28;20512;-75
2021/03/29 02:55:45;;;;;;;17.70;16.15;;;11.10;99.90;;;;;;4987058;28;20053;-75
2021/03/29 02:58:15;;;;;;;15.95;14.45;;;11.00;99.90;;;;;;4990474;28;20028;-74
2021/03/29 03:00:41;;;;;;;16.33;14.70;;;10.90;99.90;;;;;;4989555;28;20026;-74
2021/03/29 03:03:08;;;;;;;16.85;15.20;;;10.90;99.90;;;;;;4988347;28;20022;-75
2021/03/29 03:05:36;;;;;;;19.27;16.65;;;10.90;99.90;;;;;;4983624;28;20029;-75
2021/03/29 03:08:07;;;;;;;18.85;15.18;;;11.00;99.90;;;;;;4989163;28;20500;-74
2021/03/29 03:10:35;;;;;;;17.80;15.98;;;11.00;99.90;;;;;;4988887;28;20026;-74
2021/03/29 03:13:08;;;;;;;19.27;14.68;;;10.90;99.90;;;;;;4988045;28;20071;-74
2021/03/29 03:15:35;;;;;;;18.15;16.02;;;11.10;99.90;;;;;;4988616;28;20027;-74
2021/03/29 03:18:09;;;;;;;18.25;15.90;;;11.10;99.90;;;;;;4989143;28;20030;-75
2021/03/29 03:20:37;;;;;;;18.00;15.20;;;11.00;99.90;;;;;;4974739;28;20034;-74
2021/03/29 03:23:04;;;;;;;17.65;15.95;;;10.90;99.90;;;;;;4990164;28;20053;-75
2021/03/29 03:25:37;;;;;;;21.92;16.73;;;10.90;99.90;;;;;;4994077;28;20069;-75
2021/03/29 03:28:06;;;;;;;18.40;15.48;;;11.00;99.90;;;;;;4993442;28;20030;-74
2021/03/29 03:30:35;;;;;;;18.58;15.75;;;10.90;99.90;;;;;;4993127;28;20101;-74
2021/03/29 03:33:02;;;;;;;19.55;15.07;;;10.90;99.90;;;;;;4992057;28;20022;-74
2021/03/29 03:35:29;;;;;;;18.05;16.10;;;10.80;99.90;;;;;;4991280;28;20023;-75
2021/03/29 03:37:59;;;;;;;18.05;16.02;;;10.80;99.90;;;;;;4992589;28;20021;-75
2021/03/29 03:40:26;;;;;;;18.92;16.95;;;10.70;99.90;;;;;;4986971;28;20358;-75
2021/03/29 03:42:58;;;;;;;20.70;17.02;;;10.70;99.90;;;;;;4992908;28;20523;-75
2021/03/29 03:45:28;;;;;;;27.70;18.77;;;10.70;99.90;;;;;;4987933;28;20077;-75
2021/03/29 03:47:55;;;;;;;22.92;15.93;;;10.70;99.90;;;;;;4990637;28;20100;-75
2021/03/29 03:50:22;;;;;;;27.98;16.75;;;10.70;99.90;;;;;;4992985;28;20037;-75
2021/03/29 03:52:49;;;;;;;19.08;16.13;;;10.80;99.90;;;;;;4992336;28;20109;-75
2021/03/29 03:55:17;;;;;;;23.67;19.13;;;10.80;99.90;;;;;;4993146;28;20480;-74
2021/03/29 03:57:43;;;;;;;20.25;18.00;;;10.80;99.90;;;;;;4992028;28;20073;-74
2021/03/29 04:00:13;;;;;;;20.55;16.35;;;10.90;99.90;;;;;;4992622;28;20136;-74
2021/03/29 04:02:39;;;;;;;22.55;17.98;;;10.80;99.90;;;;;;4991894;28;20038;-73
2021/03/29 04:05:10;;;;;;;19.80;16.67;;;10.70;99.90;;;;;;4992312;28;20511;-74
2021/03/29 04:07:36;;;;;;;21.38;18.50;;;10.70;99.90;;;;;;4989440;28;20076;-75
2021/03/29 04:10:12;;;;;;;22.05;19.05;;;10.60;99.90;;;;;;4988244;28;20113;-74
2021/03/29 04:12:38;;;;;;;19.67;17.67;;;10.60;99.90;;;;;;4991429;28;20034;-75
2021/03/29 04:15:05;;;;;;;20.05;17.48;;;10.60;99.90;;;;;;4991351;28;20165;-74
2021/03/29 04:17:30;;;;;;;23.88;19.10;;;10.70;99.90;;;;;;4991639;28;20026;-74
2021/03/29 04:19:56;;;;;;;25.83;19.08;;;10.70;99.90;;;;;;4990860;28;20026;-75
2021/03/29 04:22:22;;;;;;;25.77;20.02;;;10.60;99.90;;;;;;4992385;28;20037;-75
2021/03/29 04:24:48;;;;;;;21.00;18.77;;;10.60;99.90;;;;;;4990863;28;20034;-75
2021/03/29 04:27:13;;;;;;;22.02;19.70;;;10.60;99.90;;;;;;4993416;28;20031;-75
2021/03/29 04:29:39;;;;;;;23.75;19.00;;;10.60;99.90;;;;;;4991919;28;20026;-75
2021/03/29 04:32:07;;;;;;;27.20;20.00;;;10.60;99.90;;;;;;4992153;28;20500;-75
2021/03/29 04:34:33;;;;;;;22.42;20.25;;;10.50;99.90;;;;;;4991632;28;20432;-74
2021/03/29 04:36:59;;;;;;;27.50;21.60;;;10.50;99.90;;;;;;4993367;28;20027;-75
2021/03/29 04:39:24;;;;;;;28.98;20.23;;;10.60;99.90;;;;;;4992189;28;20038;-75
2021/03/29 04:41:50;;;;;;;25.63;20.38;;;10.50;99.90;;;;;;4990813;28;20487;-74
2021/03/29 04:44:16;;;;;;;27.02;20.95;;;10.50;99.90;;;;;;4991032;28;20108;-75
2021/03/29 04:46:42;;;;;;;22.77;20.35;;;10.50;99.90;;;;;;4991634;28;20404;-75
2021/03/29 04:49:07;;;;;;;27.15;21.67;;;10.50;99.90;;;;;;4992995;28;20026;-75
2021/03/29 04:51:33;;;;;;;28.35;22.83;;;10.50;99.90;;;;;;4990981;28;20026;-75
2021/03/29 04:53:59;;;;;;;24.05;21.50;;;10.50;99.90;;;;;;4991903;28;20027;-74
2021/03/29 04:56:24;;;;;;;31.27;22.30;;;10.40;99.90;;;;;;4992095;28;20099;-74
2021/03/29 04:58:50;;;;;;;31.80;24.88;;;10.40;99.90;;;;;;4992607;28;20477;-75
2021/03/29 05:01:18;;;;;;;32.42;24.63;;;10.40;99.90;;;;;;4990077;28;20041;-75
2021/03/29 05:03:44;;;;;;;31.40;24.10;;;10.40;99.90;;;;;;4990394;28;20045;-74
2021/03/29 05:06:10;;;;;;;33.28;23.50;;;10.50;99.90;;;;;;4974944;28;20122;-74
2021/03/29 05:08:35;;;;;;;30.58;23.60;;;10.50;99.90;;;;;;4992559;28;20475;-74
2021/03/29 05:11:01;;;;;;;31.65;24.17;;;10.40;99.90;;;;;;4988467;28;20022;-74
2021/03/29 05:13:27;;;;;;;25.60;22.95;;;10.40;99.90;;;;;;4987970;28;20022;-74
2021/03/29 05:15:52;;;;;;;27.90;22.63;;;10.40;99.90;;;;;;4991109;28;20033;-74
2021/03/29 05:18:18;;;;;;;28.40;24.73;;;10.40;99.90;;;;;;4980668;28;20372;-74
2021/03/29 05:20:44;;;;;;;29.13;25.23;;;10.50;99.90;;;;;;4984810;28;20034;-75
2021/03/29 05:23:10;;;;;;;33.15;24.42;;;10.50;99.90;;;;;;4990806;28;20018;-74
2021/03/29 05:25:35;;;;;;;33.13;22.55;;;10.50;99.90;;;;;;4992368;28;20531;-74
2021/03/29 05:28:01;;;;;;;31.10;25.83;;;10.50;99.90;;;;;;4991397;28;20038;-74
2021/03/29 05:30:27;;;;;;;29.40;24.27;;;10.50;99.90;;;;;;4990941;28;20030;-74
2021/03/29 05:32:53;;;;;;;29.13;23.08;;;10.50;99.90;;;;;;4989729;28;20026;-74
2021/03/29 05:35:18;;;;;;;37.85;26.00;;;10.60;99.90;;;;;;4991780;28;20061;-75
2021/03/29 05:37:44;;;;;;;28.40;22.85;;;10.70;99.90;;;;;;4991932;28;20106;-74
2021/03/29 05:40:16;;;;;;;28.98;25.88;;;10.80;99.90;;;;;;4991364;28;20380;-74
2021/03/29 05:42:41;;;;;;;30.25;23.55;;;10.80;99.90;;;;;;4990297;28;20396;-74
2021/03/29 05:45:09;;;;;;;34.50;24.13;;;10.80;99.90;;;;;;4985594;28;20034;-74
2021/03/29 05:47:36;;;;;;;28.23;23.17;;;10.90;99.90;;;;;;4990718;28;20731;-76
2021/03/29 05:50:05;;;;;;;28.00;23.88;;;11.00;99.90;;;;;;4989860;28;20030;-75
2021/03/29 05:52:31;;;;;;;28.50;22.75;;;11.10;99.90;;;;;;4990885;28;20121;-74
2021/03/29 05:54:57;;;;;;;35.33;26.13;;;11.30;99.90;;;;;;4990475;28;20199;-73
2021/03/29 05:57:24;;;;;;;36.05;24.15;;;11.20;99.90;;;;;;4983657;28;20023;-74
2021/03/29 05:59:50;;;;;;;27.08;22.35;;;11.20;99.90;;;;;;4987230;28;20114;-75
2021/03/29 06:02:30;;;;;;;33.38;23.73;;;11.20;99.90;;;;;;4992304;28;20130;-74
2021/03/29 06:04:57;;;;;;;31.33;22.50;;;11.30;99.90;;;;;;4991028;28;20022;-76
2021/03/29 06:07:29;;;;;;;31.73;24.83;;;11.30;99.90;;;;;;4984645;28;20524;-76
2021/03/29 06:10:06;;;;;;;40.63;24.27;;;11.40;99.90;;;;;;4991384;28;20408;-75
2021/03/29 06:12:46;;;;;;;33.22;24.70;;;11.40;99.90;;;;;;4983755;28;20141;-75
2021/03/29 06:15:13;;;;;;;27.52;24.38;;;11.50;99.90;;;;;;4994124;28;20391;-76
2021/03/29 06:17:39;;;;;;;34.00;24.60;;;11.60;99.90;;;;;;4990588;28;20034;-75
2021/03/29 06:20:08;;;;;;;27.02;23.23;;;11.60;99.90;;;;;;4989288;28;20023;-75
2021/03/29 06:22:36;;;;;;;26.73;23.92;;;11.60;99.90;;;;;;4986201;28;20022;-75
2021/03/29 06:25:15;;;;;;;37.28;24.10;;;11.70;99.90;;;;;;4991280;28;20084;-75
2021/03/29 06:27:42;;;;;;;29.38;24.55;;;11.80;99.90;;;;;;4990416;28;20032;-76
2021/03/29 06:30:23;;;;;;;35.80;24.88;;;11.90;99.90;;;;;;4991317;28;20027;-76
2021/03/29 06:33:12;;;;;;;35.33;24.30;;;12.20;99.90;;;;;;4989999;28;20109;-76
2021/03/29 06:35:40;;;;;;;27.77;23.30;;;12.50;99.90;;;;;;4987734;28;20077;-76
2021/03/29 06:38:09;;;;;;;38.00;25.02;;;12.80;99.90;;;;;;4990950;28;20112;-75
2021/03/29 06:40:37;;;;;;;33.20;24.00;;;13.10;99.90;;;;;;4987285;28;20396;-75
2021/03/29 06:43:25;;;;;;;30.05;21.48;;;13.30;99.90;;;;;;4989702;28;20404;-75
2021/03/29 06:45:53;;;;;;;25.70;20.52;;;13.40;99.90;;;;;;4993101;28;20061;-76
2021/03/29 06:48:21;;;;;;;27.10;21.83;;;13.50;99.90;;;;;;4989225;28;20121;-75
2021/03/29 06:51:05;;;;;;;26.63;20.40;;;13.40;99.90;;;;;;4982669;28;20372;-76
2021/03/29 06:53:31;;;;;;;26.98;21.63;;;13.40;99.90;;;;;;4982830;28;21742;-77
2021/03/29 06:56:20;;;;;;;27.17;20.30;;;13.30;99.90;;;;;;4985942;28;20114;-74
2021/03/29 06:58:47;;;;;;;23.52;21.13;;;13.60;99.90;;;;;;4986089;28;20055;-75
2021/03/29 07:01:26;;;;;;;36.40;31.63;;;13.80;99.90;;;;;;4989917;28;20033;-75
2021/03/29 07:03:54;;;;;;;46.95;35.17;;;14.00;99.90;;;;;;4988201;28;20420;-76
2021/03/29 07:06:28;;;;;;;25.55;20.92;;;14.10;99.90;;;;;;4993501;28;20424;-75
2021/03/29 07:09:08;;;;;;;21.70;19.45;;;14.20;99.90;;;;;;4992819;28;20189;-76
2021/03/29 07:11:35;;;;;;;20.90;18.00;;;14.30;99.90;;;;;;4990225;28;20057;-77
2021/03/29 07:14:03;;;;;;;25.02;18.63;;;14.60;99.90;;;;;;4990965;28;20161;-78
2021/03/29 07:16:29;;;;;;;20.15;17.27;;;14.50;99.90;;;;;;4990677;28;20033;-76
2021/03/29 07:19:05;;;;;;;21.25;18.15;;;14.60;99.90;;;;;;4994217;28;20106;-76
2021/03/29 07:21:32;;;;;;;21.98;19.63;;;14.70;99.90;;;;;;4977712;28;20174;-76
2021/03/29 07:24:03;;;;;;;21.58;17.98;;;14.70;99.90;;;;;;4993579;28;20042;-75
2021/03/29 07:26:36;;;;;;;20.90;18.17;;;14.80;99.90;;;;;;4993806;28;20026;-75
2021/03/29 07:29:20;;;;;;;20.92;18.85;;;14.90;99.90;;;;;;4992513;28;20041;-76
2021/03/29 07:31:48;;;;;;;21.55;17.17;;;15.00;99.90;;;;;;4993936;28;20084;-77
2021/03/29 07:34:14;;;;;;;24.73;19.00;;;15.20;99.90;;;;;;4992548;28;20041;-75
2021/03/29 07:36:51;;;;;;;22.48;17.77;;;15.30;99.90;;;;;;4992611;28;20026;-75
2021/03/29 07:39:36;;;;;;;25.85;18.70;;;15.40;99.90;;;;;;4993854;28;20037;-75
2021/03/29 07:42:23;;;;;;;25.60;17.27;;;15.40;99.90;;;;;;4977200;28;20057;-75
2021/03/29 07:44:54;;;;;;;20.58;15.48;;;15.40;99.90;;;;;;4994328;28;20034;-75
2021/03/29 07:47:52;;;;;;;19.35;16.40;;;15.50;99.90;;;;;;4974664;28;20031;-77
2021/03/29 07:50:18;;;;;;;18.50;15.38;;;15.60;99.90;;;;;;4975423;28;20378;-75
2021/03/29 07:52:50;;;;;;;19.90;15.00;;;15.70;99.90;;;;;;4992830;28;20036;-75
2021/03/29 07:55:16;;;;;;;18.35;13.88;;;15.80;99.90;;;;;;4994281;28;20022;-76
2021/03/29 07:57:44;;;;;;;21.25;14.77;;;15.80;99.90;;;;;;4993322;28;20037;-65
2021/03/29 08:00:30;;;;;;;19.38;11.40;;;15.90;99.90;;;;;;4993369;28;20639;-65
2021/03/29 08:03:20;;;;;;;21.85;14.43;;;16.20;99.90;;;;;;4981732;28;20050;-66
2021/03/29 08:05:48;;;;;;;18.25;14.93;;;16.30;99.90;;;;;;4980172;28;20112;-64
2021/03/29 08:08:26;;;;;;;23.77;14.48;;;16.20;99.90;;;;;;4988748;28;21031;-65
2021/03/29 08:11:12;;;;;;;16.98;14.98;;;16.00;99.90;;;;;;4990903;28;20026;-65
2021/03/29 08:13:39;;;;;;;28.42;15.75;;;15.90;99.90;;;;;;4985493;28;20038;-67
2021/03/29 08:16:06;;;;;;;18.35;15.40;;;16.00;99.90;;;;;;4985848;28;20031;-64
2021/03/29 08:19:06;;;;;;;21.42;14.45;;;15.90;99.90;;;;;;4983111;28;20026;-69
2021/03/29 08:21:57;;;;;;;;;;;;;;;;;;;;;
2021/03/29 08:24:39;;;;;;;17.75;15.88;;;16.30;99.90;;;;;;4986859;28;20022;-69
2021/03/29 08:27:28;;;;;;;19.13;17.02;;;16.40;99.90;;;;;;4984173;28;20060;-69
2021/03/29 08:30:08;;;;;;;22.40;17.33;;;16.30;99.90;;;;;;4969284;28;20066;-68
2021/03/29 08:32:36;;;;;;;32.08;19.38;;;16.30;99.90;;;;;;4985260;28;20037;-69
2021/03/29 08:35:05;;;;;;;27.20;18.50;;;16.20;99.90;;;;;;4988780;28;20097;-68
2021/03/29 08:37:42;;;;;;;27.02;19.95;;;16.10;99.90;;;;;;4985453;28;20388;-69
2021/03/29 08:40:24;;;;;;;33.40;19.98;;;16.00;99.90;;;;;;4990767;28;20023;-72
2021/03/29 08:42:52;;;;;;;20.35;17.83;;;15.90;99.90;;;;;;4984266;28;20069;-70
2021/03/29 08:45:24;;;;;;;24.55;18.30;;;15.80;99.90;;;;;;4982341;28;20042;-70
2021/03/29 08:47:52;;;;;;;17.63;15.80;;;15.80;99.90;;;;;;4972425;28;20504;-70
2021/03/29 08:50:23;;;;;;;19.05;16.50;;;15.80;99.90;;;;;;4986699;28;20512;-70
2021/03/29 08:52:50;;;;;;;18.92;15.82;;;15.80;99.90;;;;;;4987052;28;20046;-70
2021/03/29 08:55:19;;;;;;;19.85;17.05;;;15.90;99.90;;;;;;4987031;28;20042;-70
2021/03/29 08:57:46;;;;;;;20.42;18.40;;;15.80;99.90;;;;;;4987051;28;20022;-68
2021/03/29 09:00:16;;;;;;;32.53;23.58;;;15.70;99.90;;;;;;4987516;28;20030;-70
2021/03/29 09:02:41;;;;;;;37.67;23.80;;;15.80;99.90;;;;;;4986653;28;20027;-69
2021/03/29 09:05:09;;;;;;;29.90;21.98;;;15.80;99.90;;;;;;4987030;28;20042;-69
2021/03/29 09:07:54;;;;;;;35.85;25.02;;;15.70;99.90;;;;;;4984035;28;20034;-69
2021/03/29 09:10:29;;;;;;;33.55;24.75;;;15.80;99.90;;;;;;4986245;28;20023;-68
2021/03/29 09:13:06;;;;;;;29.45;26.27;;;15.80;99.90;;;;;;4985198;28;20034;-68
2021/03/29 09:15:37;;;;;;;34.03;28.20;;;15.80;99.90;;;;;;4985937;28;20022;-68
2021/03/29 09:18:02;;;;;;;31.23;27.92;;;15.80;99.90;;;;;;4988644;28;20377;-69
2021/03/29 09:20:31;;;;;;;35.63;25.88;;;15.80;99.90;;;;;;4990863;28;20029;-68
2021/03/29 09:22:57;;;;;;;43.80;29.25;;;15.90;99.90;;;;;;4990077;28;20069;-70
2021/03/29 09:25:36;;;;;;;42.38;28.00;;;16.00;99.90;;;;;;4969278;28;20121;-71
2021/03/29 09:28:31;;;;;;;33.85;28.17;;;16.10;99.90;;;;;;4984886;28;20035;-71
2021/03/29 09:31:18;;;;;;;33.08;25.85;;;16.10;99.90;;;;;;4989454;28;20034;-71
2021/03/29 09:33:46;;;;;;;23.58;20.98;;;16.10;99.90;;;;;;4988640;28;20384;-70
2021/03/29 09:36:14;;;;;;;24.80;22.30;;;16.10;99.90;;;;;;4989268;28;20109;-73
2021/03/29 09:38:59;;;;;;;30.58;19.83;;;16.10;99.90;;;;;;4990123;28;20389;-70
2021/03/29 09:41:28;;;;;;;23.60;20.00;;;16.20;99.90;;;;;;4988040;28;20057;-70
2021/03/29 09:43:56;;;;;;;25.90;22.42;;;16.20;99.90;;;;;;4992545;28;20540;-71
2021/03/29 09:46:30;;;;;;;30.45;19.70;;;16.10;99.90;;;;;;4989617;28;20030;-70
2021/03/29 09:49:14;;;;;;;25.63;19.92;;;16.20;99.90;;;;;;4991278;28;20088;-71
2021/03/29 09:51:44;;;;;;;21.88;19.33;;;16.20;99.90;;;;;;4986669;28;20484;-72
2021/03/29 09:54:32;;;;;;;26.08;20.08;;;16.20;99.90;;;;;;4992932;28;20030;-71
2021/03/29 09:57:11;;;;;;;25.40;20.60;;;16.10;99.90;;;;;;4989218;28;20027;-72
2021/03/29 09:59:39;;;;;;;27.02;20.88;;;15.90;99.90;;;;;;4988518;28;20033;-73
2021/03/29 10:02:14;;;;;;;25.00;22.58;;;15.80;99.90;;;;;;4990138;28;20118;-73
2021/03/29 10:04:41;;;;;;;27.98;22.20;;;15.80;99.90;;;;;;4987048;28;20038;-74
2021/03/29 10:07:16;;;;;;;24.02;21.52;;;15.90;99.90;;;;;;4988189;28;20415;-71
2021/03/29 10:09:46;;;;;;;24.25;17.63;;;16.10;99.90;;;;;;4991940;28;20057;-71
2021/03/29 10:12:23;;;;;;;26.15;19.02;;;16.20;99.90;;;;;;4991476;28;20081;-71
2021/03/29 10:14:49;;;;;;;22.23;18.30;;;16.10;99.90;;;;;;4990607;28;20030;-71
2021/03/29 10:17:16;;;;;;;17.33;15.50;;;16.10;99.90;;;;;;4988949;28;20430;-72
2021/03/29 10:19:43;;;;;;;17.73;15.82;;;16.00;99.90;;;;;;4991153;28;20019;-72
2021/03/29 10:22:10;;;;;;;19.02;16.48;;;16.00;99.90;;;;;;4988795;28;20484;-73
2021/03/29 10:24:56;;;;;;;18.58;16.55;;;16.10;99.90;;;;;;4990928;28;20034;-72
2021/03/29 10:27:23;;;;;;;24.80;16.65;;;16.00;99.90;;;;;;4991784;28;20105;-71
2021/03/29 10:29:49;;;;;;;21.52;15.27;;;15.90;99.90;;;;;;4990533;28;20042;-72
2021/03/29 10:32:18;;;;;;;18.23;16.40;;;16.00;99.90;;;;;;4988773;28;20109;-72
2021/03/29 10:34:45;;;;;;;18.73;16.60;;;16.00;99.90;;;;;;4990519;28;20447;-70
2021/03/29 10:37:19;;;;;;;24.92;17.33;;;15.90;99.90;;;;;;4990900;28;20022;-72
2021/03/29 10:39:45;;;;;;;22.13;16.98;;;15.80;99.90;;;;;;4992495;28;20027;-72
2021/03/29 10:42:15;;;;;;;21.30;19.10;;;15.90;99.90;;;;;;4990923;28;20084;-71
2021/03/29 10:44:42;;;;;;;22.13;19.40;;;15.90;99.90;;;;;;4990851;28;20044;-70
2021/03/29 10:47:07;;;;;;;24.20;19.63;;;16.00;99.90;;;;;;4991381;28;20026;-72
2021/03/29 10:49:33;;;;;;;24.77;19.13;;;16.00;99.90;;;;;;4991957;28;20532;-71
2021/03/29 10:51:59;;;;;;;28.27;19.80;;;15.90;99.90;;;;;;4989157;28;20045;-72
2021/03/29 10:54:25;;;;;;;23.13;19.85;;;16.00;99.90;;;;;;4989675;28;20038;-69
2021/03/29 10:56:51;;;;;;;20.83;18.73;;;15.90;99.90;;;;;;4991537;28;20031;-72
2021/03/29 10:59:17;;;;;;;25.58;21.05;;;15.80;99.90;;;;;;4988843;28;20022;-70
2021/03/29 11:01:42;;;;;;;22.10;19.25;;;15.70;99.90;;;;;;4986723;28;20045;-71
2021/03/29 11:04:08;;;;;;;23.92;18.73;;;15.70;99.90;;;;;;4986012;28;20982;-72
2021/03/29 11:06:34;;;;;;;21.80;19.48;;;15.60;99.90;;;;;;4988332;28;20045;-71
2021/03/29 11:09:00;;;;;;;19.67;17.77;;;15.50;99.90;;;;;;4988015;28;20034;-71
2021/03/29 11:11:25;;;;;;;25.42;19.08;;;15.50;99.90;;;;;;4987694;28;20103;-70
2021/03/29 11:13:51;;;;;;;25.50;19.23;;;15.60;99.90;;;;;;4974678;28;20401;-71
2021/03/29 11:16:17;;;;;;;20.42;18.00;;;15.70;99.90;;;;;;4989517;28;20380;-71
2021/03/29 11:18:43;;;;;;;23.88;19.42;;;15.80;99.90;;;;;;4981279;28;20053;-73
2021/03/29 11:21:11;;;;;;;22.38;20.08;;;15.90;99.90;;;;;;4983767;28;20488;-70
2021/03/29 11:23:36;;;;;;;25.55;19.50;;;15.90;99.90;;;;;;4988894;28;20357;-72
2021/03/29 11:26:02;;;;;;;18.45;16.52;;;15.90;99.90;;;;;;4989429;28;20030;-71
2021/03/29 11:28:28;;;;;;;22.73;18.25;;;15.90;99.90;;;;;;4989639;28;20022;-72
2021/03/29 11:30:54;;;;;;;22.95;18.65;;;15.90;99.90;;;;;;4988793;28;20023;-70
2021/03/29 11:33:21;;;;;;;19.80;17.85;;;16.00;99.90;;;;;;4990212;28;20084;-71
2021/03/29 11:35:47;;;;;;;31.27;20.38;;;16.10;99.90;;;;;;4989533;28;20030;-70
2021/03/29 11:38:13;;;;;;;34.55;20.98;;;16.00;99.90;;;;;;4989129;28;20031;-73
2021/03/29 11:40:38;;;;;;;21.88;18.70;;;16.00;99.90;;;;;;4986820;28;20622;-70
2021/03/29 11:43:05;;;;;;;23.35;17.65;;;16.10;99.90;;;;;;4990835;28;20396;-70
2021/03/29 11:45:30;;;;;;;22.27;18.77;;;16.30;99.90;;;;;;4992325;28;20029;-70
2021/03/29 11:47:57;;;;;;;31.10;19.73;;;16.30;99.90;;;;;;4992166;28;20041;-71
2021/03/29 11:50:23;;;;;;;20.45;18.42;;;16.40;99.90;;;;;;4992978;28;20109;-71
2021/03/29 11:52:50;;;;;;;22.10;19.67;;;16.40;99.90;;;;;;4992185;28;20034;-71
2021/03/29 11:55:16;;;;;;;19.27;17.13;;;16.30;99.90;;;;;;4999896;28;20077;-71
2021/03/29 11:57:43;;;;;;;22.95;18.98;;;16.30;99.90;;;;;;4992567;28;20023;-71
2021/03/29 12:00:20;;;;;;;20.85;16.45;;;16.30;99.90;;;;;;4992219;28;20073;-71
2021/03/29 12:03:14;;;;;;;20.58;18.00;;;16.20;99.90;;;;;;4992917;28;20030;-72
2021/03/29 12:05:35;;;;;;;18.85;16.92;;;16.30;99.90;;;;;;4989381;28;20053;-71
2021/03/29 12:08:16;;;;;;;23.77;18.77;;;16.30;99.90;;;;;;4992798;28;20023;-70
2021/03/29 12:13:42;;;;;;;19.58;17.58;;;16.30;99.90;;;;;;4953542;28;20114;-71
2021/03/29 12:16:08;;;;;;;19.85;16.42;;;16.30;99.90;;;;;;4992929;28;20015;-71
2021/03/29 12:21:04;;;;;;;18.85;14.88;;;16.40;99.90;;;;;;4992087;28;20089;-71
2021/03/29 12:23:31;;;;;;;17.35;15.65;;;16.40;99.90;;;;;;4993097;28;20468;-71
2021/03/29 12:25:58;;;;;;;25.08;16.88;;;16.50;99.90;;;;;;4974757;28;20080;-71
2021/03/29 12:28:28;;;;;;;16.92;14.55;;;16.40;99.90;;;;;;4989680;28;20022;-71
2021/03/29 12:30:56;;;;;;;18.77;12.40;;;16.40;99.90;;;;;;4991230;28;20018;-69
2021/03/29 12:33:23;;;;;;;16.48;14.18;;;16.50;99.90;;;;;;4992615;28;20029;-71
2021/03/29 12:35:49;;;;;;;17.55;14.90;;;16.40;99.90;;;;;;4992492;28;20037;-71
2021/03/29 12:38:16;;;;;;;21.98;15.18;;;16.40;99.90;;;;;;4989359;28;20380;-69
2021/03/29 12:40:44;;;;;;;16.75;15.20;;;16.40;99.90;;;;;;4992293;28;20448;-70
2021/03/29 12:43:15;;;;;;;17.63;15.73;;;16.30;99.90;;;;;;4992746;28;20064;-70
2021/03/29 12:45:42;;;;;;;16.92;15.20;;;16.20;99.90;;;;;;4993325;28;20034;-71
2021/03/29 12:48:11;;;;;;;19.40;16.88;;;16.20;99.90;;;;;;4990414;28;20026;-72